Time;durP1;ratioP1;P1;durP2;ratioP2;P2;SDS_P1;SDS_P2;PMS_P1;PMS_P2;Temp;Humidity;BMP_temperature;BMP_pressure;BME280_temperature;BME280_humidity;BME280_pressure;Samples;Min_cycle;Max_cycle;Signal;HPM_P1;HPM_P2
2022/05/18 00:00:39;;;;;;;3.90;3.17;;;15.00;1.00;;;;;;6170078;28;20700;-56
2022/05/18 00:03:44;;;;;;;8.00;3.53;;;15.00;1.00;;;;;;6189814;28;20240;-61
2022/05/18 00:06:47;;;;;;;3.47;3.10;;;14.90;1.00;;;;;;6176439;28;20493;-54
2022/05/18 00:09:51;;;;;;;5.37;3.60;;;14.80;1.00;;;;;;6185868;28;20587;-55
2022/05/18 00:12:54;;;;;;;4.13;3.83;;;14.80;1.00;;;;;;6178961;28;20288;-56
2022/05/18 00:15:57;;;;;;;4.03;3.73;;;14.70;1.00;;;;;;6181431;28;20697;-54
2022/05/18 00:19:01;;;;;;;9.43;3.83;;;14.70;1.00;;;;;;6181631;28;20244;-56
2022/05/18 00:22:05;;;;;;;3.90;3.70;;;14.60;1.00;;;;;;6183287;28;20315;-54
2022/05/18 00:25:10;;;;;;;3.53;3.43;;;14.60;1.00;;;;;;6170917;28;20244;-55
2022/05/18 00:28:15;;;;;;;8.30;4.07;;;14.60;1.00;;;;;;6163353;28;20236;-57
2022/05/18 00:31:20;;;;;;;4.47;4.07;;;14.50;1.00;;;;;;6163026;28;20379;-55
2022/05/18 00:34:22;;;;;;;3.93;3.60;;;14.50;1.00;;;;;;6183698;28;20238;-55
2022/05/18 00:37:25;;;;;;;3.73;3.37;;;14.40;1.00;;;;;;6209340;28;20241;-54
2022/05/18 00:40:32;;;;;;;4.10;3.80;;;14.40;1.00;;;;;;6187574;28;20793;-55
2022/05/18 00:43:41;;;;;;;3.73;3.53;;;14.30;1.00;;;;;;6169217;28;20623;-56
2022/05/18 00:46:44;;;;;;;6.13;3.73;;;14.20;1.00;;;;;;6160985;28;20741;-56
2022/05/18 00:49:54;;;;;;;3.93;3.73;;;14.20;1.00;;;;;;6161211;28;20335;-56
2022/05/18 00:53:02;;;;;;;6.20;3.87;;;14.30;1.00;;;;;;6162265;28;20739;-57
2022/05/18 00:56:10;;;;;;;5.17;3.60;;;14.10;1.00;;;;;;6163134;28;20379;-55
2022/05/18 00:59:19;;;;;;;3.30;3.20;;;14.10;1.00;;;;;;6160658;28;20726;-56
2022/05/18 01:02:24;;;;;;;4.33;3.53;;;14.00;1.00;;;;;;6162176;28;20451;-56
2022/05/18 01:05:36;;;;;;;4.17;3.77;;;14.00;1.00;;;;;;6195370;28;20240;-56
2022/05/18 01:08:43;;;;;;;4.60;3.60;;;14.00;1.00;;;;;;6190125;28;20250;-55
2022/05/18 01:11:47;;;;;;;5.70;3.00;;;14.00;1.00;;;;;;6183338;28;20327;-56
2022/05/18 01:14:55;;;;;;;7.07;3.40;;;13.90;1.00;;;;;;6163173;28;20279;-56
2022/05/18 01:17:59;;;;;;;3.07;2.97;;;13.90;1.00;;;;;;6160735;28;20251;-54
2022/05/18 01:21:01;;;;;;;4.47;3.33;;;13.80;1.00;;;;;;6161889;28;20240;-56
2022/05/18 01:24:15;;;;;;;3.37;3.20;;;13.80;1.00;;;;;;6162109;28;20406;-55
2022/05/18 01:27:24;;;;;;;4.30;3.40;;;13.70;1.00;;;;;;6160843;28;20251;-56
2022/05/18 01:30:28;;;;;;;5.70;3.50;;;13.70;1.00;;;;;;6160216;28;20258;-56
2022/05/18 01:33:30;;;;;;;4.07;2.80;;;13.70;1.00;;;;;;6169202;28;20240;-53
2022/05/18 01:36:33;;;;;;;3.30;3.00;;;13.70;1.00;;;;;;6177401;28;20528;-56
2022/05/18 01:39:46;;;;;;;3.10;3.00;;;13.70;1.00;;;;;;6184947;28;20323;-57
2022/05/18 01:42:56;;;;;;;5.13;3.30;;;13.60;1.00;;;;;;6184591;28;20260;-59
2022/05/18 01:46:02;;;;;;;3.10;2.90;;;13.60;1.00;;;;;;6172376;28;20236;-56
2022/05/18 01:49:04;;;;;;;5.07;2.77;;;13.60;1.00;;;;;;6158385;28;20803;-56
2022/05/18 01:52:10;;;;;;;4.03;3.23;;;13.60;1.00;;;;;;6160479;28;20485;-56
2022/05/18 01:55:16;;;;;;;5.40;2.80;;;13.50;1.00;;;;;;6161036;28;20267;-56
2022/05/18 01:58:21;;;;;;;3.13;2.50;;;13.50;1.00;;;;;;6160769;28;20244;-56
2022/05/18 02:01:24;;;;;;;6.10;3.30;;;13.50;1.00;;;;;;6160344;28;20426;-56
2022/05/18 02:04:27;;;;;;;3.10;2.90;;;13.50;1.00;;;;;;6183253;28;20643;-54
2022/05/18 02:07:32;;;;;;;5.90;3.13;;;13.50;1.00;;;;;;6174169;28;20330;-56
2022/05/18 02:10:35;;;;;;;3.10;2.80;;;13.40;1.00;;;;;;6184286;28;20605;-56
2022/05/18 02:13:39;;;;;;;4.13;3.10;;;13.40;1.00;;;;;;6183628;28;20243;-56
2022/05/18 02:16:42;;;;;;;5.37;2.90;;;13.40;1.00;;;;;;6182676;28;20243;-56
2022/05/18 02:19:46;;;;;;;2.77;2.57;;;13.30;1.00;;;;;;6167047;28;20686;-56
2022/05/18 02:22:51;;;;;;;4.07;2.87;;;13.30;1.00;;;;;;6163380;28;20617;-53
2022/05/18 02:25:54;;;;;;;3.23;2.77;;;13.30;1.00;;;;;;6185006;28;20236;-54
2022/05/18 02:28:58;;;;;;;7.50;2.63;;;13.20;1.00;;;;;;6165458;28;20244;-55
2022/05/18 02:32:01;;;;;;;5.37;3.20;;;13.10;1.00;;;;;;6158172;28;20465;-56
2022/05/18 02:35:05;;;;;;;3.13;2.50;;;13.10;1.00;;;;;;6194274;28;20304;-56
2022/05/18 02:38:09;;;;;;;3.83;2.70;;;13.10;1.00;;;;;;6191104;28;20943;-54
2022/05/18 02:41:12;;;;;;;2.97;2.67;;;13.10;1.00;;;;;;6183551;28;20247;-55
2022/05/18 02:44:25;;;;;;;3.33;2.60;;;13.00;1.00;;;;;;6182925;28;20724;-55
2022/05/18 02:47:28;;;;;;;3.10;2.80;;;13.00;1.00;;;;;;6180160;28;20302;-59
2022/05/18 02:50:32;;;;;;;3.73;2.50;;;12.90;1.00;;;;;;6184409;28;20853;-55
2022/05/18 02:53:36;;;;;;;6.03;2.53;;;12.90;1.00;;;;;;6159815;28;20425;-54
2022/05/18 02:56:38;;;;;;;4.30;2.73;;;12.80;1.00;;;;;;6159673;28;20467;-55
2022/05/18 02:59:43;;;;;;;2.40;2.30;;;12.70;1.00;;;;;;6158551;28;20660;-55
2022/05/18 03:02:46;;;;;;;2.80;2.60;;;12.70;1.00;;;;;;6174116;28;20228;-55
2022/05/18 03:05:48;;;;;;;6.97;2.50;;;12.70;1.00;;;;;;6191562;28;20319;-56
2022/05/18 03:08:52;;;;;;;3.53;2.30;;;12.60;1.00;;;;;;6180065;28;20322;-56
2022/05/18 03:11:56;;;;;;;4.57;2.57;;;12.60;1.00;;;;;;6182876;28;20695;-56
2022/05/18 03:15:05;;;;;;;2.63;2.43;;;12.60;1.00;;;;;;6183243;28;20255;-55
2022/05/18 03:18:08;;;;;;;3.03;2.50;;;12.60;1.00;;;;;;6180213;28;20858;-56
2022/05/18 03:24:28;;;;;;;2.93;2.40;;;12.60;1.00;;;;;;6146160;28;20245;-55
2022/05/18 03:27:32;;;;;;;2.67;2.47;;;12.50;1.00;;;;;;6158744;28;20271;-56
2022/05/18 03:30:36;;;;;;;2.87;2.67;;;12.50;1.00;;;;;;6159714;28;20252;-55
2022/05/18 03:33:39;;;;;;;3.00;2.73;;;12.50;1.00;;;;;;6172694;28;20243;-57
2022/05/18 03:36:43;;;;;;;3.77;2.60;;;12.50;1.00;;;;;;6189290;28;20327;-54
2022/05/18 03:39:46;;;;;;;5.67;2.30;;;12.50;1.00;;;;;;6185025;28;20232;-57
2022/05/18 03:42:55;;;;;;;2.77;2.57;;;12.50;1.00;;;;;;6176793;28;20778;-55
2022/05/18 03:45:59;;;;;;;2.80;2.70;;;12.40;1.00;;;;;;6184165;28;20248;-56
2022/05/18 03:49:03;;;;;;;3.10;2.87;;;12.40;1.00;;;;;;6176769;28;20719;-55
2022/05/18 03:52:07;;;;;;;2.97;2.60;;;12.40;1.00;;;;;;6189245;28;20293;-55
2022/05/18 03:55:12;;;;;;;5.43;3.13;;;12.40;1.00;;;;;;6172177;28;20235;-55
2022/05/18 03:58:16;;;;;;;2.43;2.37;;;12.40;1.00;;;;;;6177072;28;20633;-55
2022/05/18 04:01:21;;;;;;;2.30;2.30;;;12.40;1.00;;;;;;6187178;28;20240;-55
2022/05/18 04:04:25;;;;;;;3.43;2.40;;;12.40;1.00;;;;;;6187979;28;20731;-56
2022/05/18 04:07:28;;;;;;;2.80;2.70;;;12.50;1.00;;;;;;6171739;28;20592;-54
2022/05/18 04:10:31;;;;;;;2.53;2.43;;;12.50;1.00;;;;;;6185311;28;20319;-56
2022/05/18 04:13:35;;;;;;;2.67;2.57;;;12.50;1.00;;;;;;6180638;28;20397;-55
2022/05/18 04:16:42;;;;;;;2.80;2.70;;;12.60;1.00;;;;;;6172874;28;20279;-56
2022/05/18 04:19:56;;;;;;;2.77;2.67;;;12.60;1.00;;;;;;6184509;28;20251;-55
2022/05/18 04:22:59;;;;;;;3.17;2.70;;;12.60;1.00;;;;;;6191110;28;20244;-54
2022/05/18 04:26:02;;;;;;;2.80;2.63;;;12.60;1.00;;;;;;6193748;28;20267;-55
2022/05/18 04:29:05;;;;;;;2.73;2.63;;;12.70;1.00;;;;;;6189971;28;20326;-59
2022/05/18 04:32:10;;;;;;;2.43;2.33;;;12.70;1.00;;;;;;6183132;28;20306;-58
2022/05/18 04:35:15;;;;;;;2.53;2.40;;;12.70;1.00;;;;;;6185791;28;20740;-55
2022/05/18 04:38:19;;;;;;;2.70;2.50;;;12.80;1.00;;;;;;6182270;28;20615;-55
2022/05/18 04:41:39;;;;;;;2.77;2.67;;;12.80;1.00;;;;;;6188637;28;20255;-56
2022/05/18 04:44:42;;;;;;;3.27;2.57;;;12.90;1.00;;;;;;6186144;28;20319;-54
2022/05/18 04:47:46;;;;;;;2.63;2.53;;;12.90;1.00;;;;;;6183157;28;20590;-54
2022/05/18 04:50:49;;;;;;;2.97;2.70;;;13.00;1.00;;;;;;6187485;28;20731;-54
2022/05/18 04:53:52;;;;;;;3.57;2.70;;;13.10;1.00;;;;;;6184687;28;20542;-55
2022/05/18 04:56:56;;;;;;;2.90;2.70;;;13.20;1.00;;;;;;6179731;28;20822;-55
2022/05/18 04:59:58;;;;;;;2.70;2.60;;;13.40;1.00;;;;;;6177735;28;20321;-56
2022/05/18 05:03:02;;;;;;;2.80;2.60;;;13.50;1.00;;;;;;6186269;28;20300;-55
2022/05/18 05:06:06;;;;;;;2.50;2.30;;;13.60;1.00;;;;;;6189406;28;20243;-56
2022/05/18 05:09:10;;;;;;;2.53;2.33;;;13.60;1.00;;;;;;6188098;28;20756;-55
2022/05/18 05:12:13;;;;;;;3.43;2.60;;;13.60;1.00;;;;;;6181280;28;20244;-56
2022/05/18 05:15:17;;;;;;;2.90;2.80;;;13.70;1.00;;;;;;6184575;28;20239;-57
2022/05/18 05:18:22;;;;;;;3.13;2.50;;;13.80;1.00;;;;;;6186046;28;20331;-55
2022/05/18 05:21:25;;;;;;;3.03;2.70;;;13.80;1.00;;;;;;6185406;28;20319;-56
2022/05/18 05:24:27;;;;;;;4.33;2.67;;;13.80;1.00;;;;;;6192162;28;20267;-55
2022/05/18 05:27:30;;;;;;;3.07;2.77;;;14.00;1.00;;;;;;6192559;28;20327;-55
2022/05/18 05:30:33;;;;;;;2.73;2.53;;;14.10;1.00;;;;;;6191522;28;20253;-55
2022/05/18 05:33:39;;;;;;;2.63;2.47;;;14.10;1.00;;;;;;6185803;28;20239;-53
2022/05/18 05:36:41;;;;;;;2.97;2.80;;;14.20;1.00;;;;;;6186523;28;20248;-55
2022/05/18 05:39:56;;;;;;;4.03;2.60;;;14.20;1.00;;;;;;6190503;28;20382;-54
2022/05/18 05:42:58;;;;;;;3.33;2.67;;;14.40;1.00;;;;;;6186466;28;20322;-56
2022/05/18 05:46:03;;;;;;;4.93;2.67;;;14.60;1.00;;;;;;6187558;28;20248;-55
2022/05/18 05:49:07;;;;;;;2.93;2.73;;;14.60;1.00;;;;;;6182033;28;20242;-56
2022/05/18 05:52:10;;;;;;;4.73;2.63;;;14.80;1.00;;;;;;6187163;28;20266;-55
2022/05/18 05:55:13;;;;;;;2.70;2.60;;;14.80;1.00;;;;;;6192000;28;20323;-56
2022/05/18 05:58:17;;;;;;;3.27;3.03;;;14.80;1.00;;;;;;6184499;28;20653;-55
2022/05/18 06:01:20;;;;;;;4.80;2.80;;;14.90;1.00;;;;;;6177636;28;20235;-55
2022/05/18 06:04:24;;;;;;;2.90;2.80;;;15.00;1.00;;;;;;6181321;28;20236;-56
2022/05/18 06:07:27;;;;;;;3.27;2.57;;;15.10;1.00;;;;;;6182386;28;20244;-56
2022/05/18 06:10:39;;;;;;;4.37;2.70;;;15.30;1.00;;;;;;6187730;28;20674;-55
2022/05/18 06:13:42;;;;;;;2.63;2.53;;;15.60;1.00;;;;;;6183546;28;20512;-55
2022/05/18 06:16:46;;;;;;;2.90;2.43;;;15.80;1.00;;;;;;6179565;28;20340;-56
2022/05/18 06:19:50;;;;;;;3.20;2.90;;;16.10;1.00;;;;;;6189693;28;20371;-55
2022/05/18 06:22:53;;;;;;;4.17;2.27;;;16.40;1.00;;;;;;6188487;28;20383;-55
2022/05/18 06:25:59;;;;;;;2.90;2.70;;;16.70;1.00;;;;;;6181455;28;21786;-57
2022/05/18 06:29:02;;;;;;;2.97;2.67;;;16.90;1.00;;;;;;6182061;28;20807;-54
2022/05/18 06:32:06;;;;;;;2.70;2.60;;;17.10;1.00;;;;;;6180264;28;20743;-55
2022/05/18 06:35:10;;;;;;;2.70;2.60;;;17.30;1.00;;;;;;6181567;28;20251;-55
2022/05/18 06:38:14;;;;;;;3.30;2.70;;;17.50;1.00;;;;;;6192333;28;20380;-55
2022/05/18 06:41:23;;;;;;;2.97;2.77;;;17.30;1.00;;;;;;6182612;28;20701;-54
2022/05/18 06:44:26;;;;;;;4.43;2.70;;;17.50;1.00;;;;;;6187748;28;20232;-55
2022/05/18 06:47:29;;;;;;;3.43;3.23;;;17.60;1.00;;;;;;6180266;28;20759;-55
2022/05/18 06:50:33;;;;;;;3.10;2.60;;;17.50;1.00;;;;;;6191972;28;20235;-56
2022/05/18 06:53:36;;;;;;;4.13;2.77;;;17.50;1.00;;;;;;6176739;28;20308;-54
2022/05/18 06:56:43;;;;;;;3.17;2.87;;;17.70;1.00;;;;;;6182327;28;20764;-55
2022/05/18 06:59:45;;;;;;;3.10;2.70;;;17.90;1.00;;;;;;6188411;28;20236;-55
2022/05/18 07:02:50;;;;;;;3.90;3.60;;;18.10;1.00;;;;;;6179166;28;20697;-56
2022/05/18 07:05:55;;;;;;;3.10;2.90;;;18.20;1.00;;;;;;6177046;28;20244;-55
2022/05/18 07:08:58;;;;;;;6.10;3.13;;;18.30;1.00;;;;;;6191156;28;20239;-56
2022/05/18 07:12:04;;;;;;;4.67;3.30;;;18.40;1.00;;;;;;6174071;28;20322;-55
2022/05/18 07:15:09;;;;;;;4.60;3.10;;;18.50;1.00;;;;;;6183040;28;20238;-57
2022/05/18 07:18:12;;;;;;;5.63;3.10;;;18.40;1.00;;;;;;6192803;28;20587;-54
2022/05/18 07:21:17;;;;;;;3.07;2.90;;;18.40;1.00;;;;;;6182543;28;20323;-54
2022/05/18 07:24:21;;;;;;;3.60;3.40;;;18.50;1.00;;;;;;6186203;28;20242;-56
2022/05/18 07:27:23;;;;;;;3.57;3.27;;;18.50;1.00;;;;;;6189349;28;20235;-55
2022/05/18 07:30:27;;;;;;;3.53;3.30;;;18.30;1.00;;;;;;6186114;28;20471;-55
2022/05/18 07:33:30;;;;;;;3.30;3.00;;;18.20;1.00;;;;;;6171965;28;20228;-55
2022/05/18 07:36:34;;;;;;;5.00;3.57;;;18.30;1.00;;;;;;6188178;28;20330;-55
2022/05/18 07:39:37;;;;;;;3.90;3.50;;;18.40;1.00;;;;;;6182113;28;20319;-55
2022/05/18 07:42:40;;;;;;;5.27;3.77;;;18.50;1.00;;;;;;6183292;28;20236;-55
2022/05/18 07:45:43;;;;;;;3.90;3.43;;;18.50;1.00;;;;;;6188947;28;20239;-55
2022/05/18 07:48:51;;;;;;;9.73;3.53;;;18.60;1.00;;;;;;6170140;28;20623;-56
2022/05/18 07:51:55;;;;;;;3.73;3.23;;;18.60;1.00;;;;;;6190389;28;20522;-56
2022/05/18 07:54:57;;;;;;;3.60;3.33;;;18.60;1.00;;;;;;6186230;28;20367;-56
2022/05/18 07:58:04;;;;;;;4.23;3.70;;;18.50;1.00;;;;;;6178633;28;20402;-54
2022/05/18 08:01:07;;;;;;;5.03;3.17;;;18.60;1.00;;;;;;6178244;28;20316;-56
2022/05/18 08:04:11;;;;;;;3.63;3.43;;;18.60;1.00;;;;;;6184640;28;20467;-55
2022/05/18 08:07:15;;;;;;;3.80;3.50;;;18.70;1.00;;;;;;6178811;28;20240;-55
2022/05/18 08:17:01;;;;;;;3.57;3.23;;;18.70;1.00;;;;;;6174106;28;20838;-55
2022/05/18 08:20:06;;;;;;;6.40;3.63;;;18.70;1.00;;;;;;6171012;28;20468;-54
2022/05/18 08:23:10;;;;;;;3.80;3.50;;;18.80;1.00;;;;;;6193908;28;20374;-56
2022/05/18 08:26:13;;;;;;;6.20;3.60;;;18.90;1.00;;;;;;6181841;28;20251;-55
2022/05/18 08:29:16;;;;;;;4.73;3.47;;;18.80;1.00;;;;;;6181305;28;20260;-55
2022/05/18 08:32:23;;;;;;;3.93;3.53;;;18.90;1.00;;;;;;6181933;28;20674;-55
2022/05/18 08:35:27;;;;;;;4.03;3.83;;;19.20;1.00;;;;;;6175829;28;20818;-55
2022/05/18 08:38:31;;;;;;;4.17;3.90;;;19.30;1.00;;;;;;6182943;28;20236;-55
2022/05/18 08:41:41;;;;;;;4.20;3.90;;;19.50;1.00;;;;;;6180664;28;20255;-55
2022/05/18 08:44:44;;;;;;;3.87;3.63;;;19.70;1.00;;;;;;6177177;28;20420;-56
2022/05/18 08:47:58;;;;;;;4.03;3.80;;;19.90;1.00;;;;;;6187157;28;20236;-53
2022/05/18 08:51:05;;;;;;;5.67;4.00;;;19.90;1.00;;;;;;6185033;28;20285;-55
2022/05/18 08:54:41;;;;;;;4.03;3.73;;;20.10;1.00;;;;;;6176244;28;20233;-55
2022/05/18 08:57:48;;;;;;;4.07;3.70;;;20.30;1.00;;;;;;6181977;28;20674;-55
2022/05/18 09:00:54;;;;;;;5.00;4.10;;;20.50;1.00;;;;;;6175964;28;20522;-54
2022/05/18 09:04:01;;;;;;;5.43;3.90;;;20.60;1.00;;;;;;6195284;28;20239;-55
2022/05/18 09:07:06;;;;;;;7.93;3.90;;;20.60;1.00;;;;;;6190845;28;20832;-56
2022/05/18 09:10:23;;;;;;;4.33;4.10;;;20.50;1.00;;;;;;6191426;28;20228;-54
2022/05/18 09:13:27;;;;;;;5.60;3.80;;;20.70;1.00;;;;;;6187005;28;20278;-54
2022/05/18 09:16:35;;;;;;;4.63;4.03;;;20.60;1.00;;;;;;6189798;28;20592;-55
2022/05/18 09:19:53;;;;;;;3.77;3.57;;;20.50;1.00;;;;;;6195875;28;20248;-54
2022/05/18 09:23:30;;;;;;;4.37;3.93;;;20.50;1.00;;;;;;6180448;28;20240;-54
2022/05/18 09:26:47;;;;;;;5.07;3.83;;;20.70;1.00;;;;;;6182667;28;20311;-54
2022/05/18 09:30:08;;;;;;;9.43;5.00;;;20.70;1.00;;;;;;6179230;28;20272;-54
2022/05/18 09:33:37;;;;;;;5.70;4.30;;;20.70;1.00;;;;;;6181154;28;20240;-55
2022/05/18 09:37:00;;;;;;;4.50;4.20;;;20.80;1.00;;;;;;6177901;28;20729;-55
2022/05/18 09:40:10;;;;;;;4.60;4.30;;;20.90;1.00;;;;;;6189691;28;20248;-59
2022/05/18 09:43:21;;;;;;;4.50;4.10;;;20.90;1.00;;;;;;6179927;28;20383;-55
2022/05/18 09:46:27;;;;;;;5.37;4.90;;;21.20;1.00;;;;;;6189889;28;20569;-54
2022/05/18 09:49:33;;;;;;;4.43;4.03;;;21.30;1.00;;;;;;6190922;28;20258;-50
2022/05/18 09:52:37;;;;;;;6.33;4.83;;;21.30;1.00;;;;;;6192953;28;20727;-55
2022/05/18 09:55:41;;;;;;;6.60;4.43;;;21.40;1.00;;;;;;6190552;28;20243;-54
2022/05/18 09:58:48;;;;;;;5.10;4.60;;;21.40;1.00;;;;;;6175276;28;20555;-54
2022/05/18 10:08:53;;;;;;;6.83;5.10;;;21.80;1.00;;;;;;6086187;29;20232;-55
2022/05/18 10:11:56;;;;;;;9.20;5.13;;;22.00;1.00;;;;;;6084824;29;20317;-55
2022/05/18 10:15:03;;;;;;;4.70;4.47;;;22.00;1.00;;;;;;6184410;28;20239;-54
2022/05/18 10:18:15;;;;;;;5.57;5.07;;;22.10;1.00;;;;;;6182708;28;20236;-55
2022/05/18 10:21:26;;;;;;;7.10;5.93;;;22.30;1.00;;;;;;6177072;28;20239;-55
2022/05/18 10:24:37;;;;;;;10.83;6.20;;;22.40;1.00;;;;;;6188962;28;20231;-55
2022/05/18 10:27:44;;;;;;;6.07;5.67;;;22.40;1.00;;;;;;6175507;28;20248;-55
2022/05/18 10:30:56;;;;;;;6.00;5.63;;;22.50;1.00;;;;;;6180142;28;20615;-56
2022/05/18 10:34:22;;;;;;;6.47;5.97;;;22.70;1.00;;;;;;6183661;28;20706;-54
2022/05/18 10:37:27;;;;;;;6.27;5.77;;;22.80;1.00;;;;;;6185204;28;20745;-56
2022/05/18 10:40:30;;;;;;;6.70;6.20;;;22.90;1.00;;;;;;6178843;28;20733;-56
2022/05/18 10:43:35;;;;;;;6.50;5.97;;;23.00;1.00;;;;;;6188662;28;20274;-56
2022/05/18 10:46:54;;;;;;;6.37;5.97;;;23.00;1.00;;;;;;6165598;28;20251;-55
2022/05/18 10:50:23;;;;;;;6.20;5.70;;;23.00;1.00;;;;;;6184538;28;20250;-55
2022/05/18 10:53:33;;;;;;;6.40;6.00;;;23.20;1.00;;;;;;6184728;28;20235;-56
2022/05/18 10:56:37;;;;;;;7.33;6.83;;;23.40;1.00;;;;;;6181665;28;20323;-56
2022/05/18 10:59:50;;;;;;;7.63;6.87;;;23.40;1.00;;;;;;6188924;28;20279;-55
2022/05/18 11:03:00;;;;;;;8.13;6.07;;;23.30;1.00;;;;;;6180356;28;20507;-56
2022/05/18 11:06:08;;;;;;;8.60;7.17;;;23.30;1.00;;;;;;6176261;28;20675;-56
2022/05/18 11:09:19;;;;;;;10.27;6.67;;;23.40;1.00;;;;;;6184693;28;20243;-55
2022/05/18 11:12:40;;;;;;;12.00;6.97;;;23.40;1.00;;;;;;6186717;28;20232;-54
2022/05/18 11:15:52;;;;;;;6.67;6.10;;;23.50;1.00;;;;;;6187884;28;20234;-56
2022/05/18 11:19:02;;;;;;;5.30;4.83;;;23.60;1.00;;;;;;6180110;28;20769;-54
2022/05/18 11:22:19;;;;;;;6.00;5.47;;;23.60;1.00;;;;;;6175961;28;20732;-54
2022/05/18 11:25:32;;;;;;;6.43;5.80;;;23.60;1.00;;;;;;6179358;28;20335;-54
2022/05/18 11:29:02;;;;;;;9.87;5.67;;;23.70;1.00;;;;;;6174634;28;20267;-55
2022/05/18 11:32:28;;;;;;;5.37;4.87;;;23.90;1.00;;;;;;6174468;28;20237;-55
2022/05/18 11:35:51;;;;;;;6.10;5.40;;;23.90;1.00;;;;;;6179133;28;20239;-54
2022/05/18 11:39:08;;;;;;;6.57;6.00;;;23.90;1.00;;;;;;6178830;28;20305;-54
2022/05/18 11:42:24;;;;;;;6.10;5.63;;;24.00;1.00;;;;;;6177549;28;20236;-54
2022/05/18 11:45:40;;;;;;;6.00;5.50;;;23.90;1.00;;;;;;6188407;28;20240;-55
2022/05/18 11:48:50;;;;;;;6.27;5.77;;;23.90;1.00;;;;;;6178644;28;20293;-55
2022/05/18 11:52:29;;;;;;;8.23;5.67;;;24.20;1.00;;;;;;6187892;28;20855;-55
2022/05/18 11:55:39;;;;;;;5.53;5.13;;;24.20;1.00;;;;;;6182514;28;20566;-55
2022/05/18 11:59:03;;;;;;;6.57;6.17;;;24.30;1.00;;;;;;6187184;28;20247;-54
2022/05/18 12:02:27;;;;;;;6.40;6.00;;;24.50;1.00;;;;;;6171615;28;20244;-55
2022/05/18 12:05:46;;;;;;;6.43;5.77;;;24.50;1.00;;;;;;6183819;28;20244;-55
2022/05/18 12:09:04;;;;;;;5.80;5.40;;;24.50;1.00;;;;;;6182530;28;20648;-56
2022/05/18 12:12:16;;;;;;;6.07;5.57;;;24.50;1.00;;;;;;6189401;28;20232;-55
2022/05/18 12:15:26;;;;;;;5.60;5.20;;;24.50;1.00;;;;;;6181619;28;20608;-56
2022/05/18 12:18:37;;;;;;;5.67;5.20;;;24.60;1.00;;;;;;6183897;28;20243;-54
2022/05/18 12:21:43;;;;;;;5.83;5.23;;;24.50;1.00;;;;;;6189951;28;20657;-55
2022/05/18 12:24:49;;;;;;;6.00;5.50;;;24.60;1.00;;;;;;6189495;28;20509;-56
2022/05/18 12:27:55;;;;;;;5.90;5.53;;;24.70;1.00;;;;;;6187633;28;20239;-55
2022/05/18 12:31:00;;;;;;;6.60;5.13;;;24.60;1.00;;;;;;6192780;28;20370;-56
2022/05/18 12:34:06;;;;;;;7.30;5.63;;;24.60;1.00;;;;;;6191568;28;20563;-55
2022/05/18 12:37:23;;;;;;;5.93;5.43;;;24.60;1.00;;;;;;6177423;28;20270;-55
2022/05/18 12:40:46;;;;;;;6.80;5.57;;;24.70;1.00;;;;;;6189919;28;20248;-55
2022/05/18 12:43:52;;;;;;;5.87;5.30;;;24.80;1.00;;;;;;6189060;28;20330;-55
2022/05/18 12:47:01;;;;;;;8.23;5.40;;;24.70;1.00;;;;;;6184820;28;20511;-55
2022/05/18 12:50:13;;;;;;;5.63;5.23;;;24.70;1.00;;;;;;6186271;28;20297;-54
2022/05/18 12:53:24;;;;;;;5.60;5.00;;;24.80;1.00;;;;;;6186942;28;20306;-55
2022/05/18 12:56:50;;;;;;;6.70;5.80;;;24.80;1.00;;;;;;6185157;28;20366;-54
2022/05/18 13:00:39;;;;;;;5.83;5.17;;;24.80;1.00;;;;;;6185599;28;20235;-54
2022/05/18 13:03:59;;;;;;;5.97;5.57;;;24.90;1.00;;;;;;6182349;28;20818;-54
2022/05/18 13:07:20;;;;;;;8.20;6.10;;;25.00;1.00;;;;;;6186722;28;20708;-55
2022/05/18 13:10:28;;;;;;;6.17;5.77;;;25.10;1.00;;;;;;6192379;28;20656;-54
2022/05/18 13:13:37;;;;;;;5.43;5.13;;;25.10;1.00;;;;;;6174059;28;20491;-56
2022/05/18 13:17:05;;;;;;;5.73;5.13;;;25.10;1.00;;;;;;6192995;28;20248;-55
2022/05/18 13:20:40;;;;;;;6.90;6.40;;;25.30;1.00;;;;;;6182686;28;20246;-54
2022/05/18 13:23:53;;;;;;;5.87;5.37;;;25.10;1.00;;;;;;6185925;28;20504;-55
2022/05/18 13:27:03;;;;;;;5.83;5.33;;;25.10;1.00;;;;;;6190924;28;20342;-55
2022/05/18 13:30:14;;;;;;;6.53;6.10;;;25.00;1.00;;;;;;6191946;28;20326;-54
2022/05/18 13:33:17;;;;;;;6.30;5.83;;;25.00;1.00;;;;;;6189432;28;20242;-55
2022/05/18 13:36:35;;;;;;;6.77;6.23;;;25.10;1.00;;;;;;6177882;28;20236;-54
2022/05/18 13:39:40;;;;;;;6.70;6.20;;;25.10;1.00;;;;;;6180592;28;20730;-56
2022/05/18 13:42:43;;;;;;;9.67;5.90;;;25.20;1.00;;;;;;6187567;28;20338;-55
2022/05/18 13:45:54;;;;;;;5.60;5.20;;;25.10;1.00;;;;;;6189288;28;20459;-53
2022/05/18 13:49:02;;;;;;;5.70;5.40;;;25.20;1.00;;;;;;6172544;28;20267;-54
2022/05/18 13:52:09;;;;;;;6.70;5.90;;;25.30;1.00;;;;;;6183285;28;20616;-54
2022/05/18 13:55:22;;;;;;;5.90;5.43;;;25.20;1.00;;;;;;6189905;28;20280;-55
2022/05/18 13:58:27;;;;;;;8.33;6.27;;;25.20;1.00;;;;;;6183151;28;20314;-54
2022/05/18 14:01:33;;;;;;;6.20;5.60;;;25.20;1.00;;;;;;6183085;28;20346;-54
2022/05/18 14:04:42;;;;;;;6.97;5.83;;;25.40;1.00;;;;;;6182714;28;20275;-55
2022/05/18 14:08:22;;;;;;;5.77;5.37;;;25.40;1.00;;;;;;6178905;28;20235;-54
2022/05/18 14:11:34;;;;;;;6.10;5.80;;;25.40;1.00;;;;;;6182100;28;20313;-54
2022/05/18 14:14:39;;;;;;;5.60;5.20;;;25.50;1.00;;;;;;6176814;28;20629;-55
2022/05/18 14:17:43;;;;;;;5.30;4.87;;;25.50;1.00;;;;;;6184074;28;20240;-54
2022/05/18 14:20:50;;;;;;;6.20;5.77;;;25.50;1.00;;;;;;6190422;28;20753;-54
2022/05/18 14:24:08;;;;;;;5.97;5.63;;;25.50;1.00;;;;;;6189215;28;20285;-55
2022/05/18 14:27:15;;;;;;;6.07;5.67;;;25.50;1.00;;;;;;6190456;28;20671;-55
2022/05/18 14:30:21;;;;;;;5.50;5.10;;;25.50;1.00;;;;;;6183497;28;20256;-55
2022/05/18 14:33:49;;;;;;;6.10;5.80;;;25.50;1.00;;;;;;6184051;28;20344;-55
2022/05/18 14:36:55;;;;;;;5.27;4.93;;;25.60;1.00;;;;;;6184649;28;20244;-54
2022/05/18 14:40:01;;;;;;;6.07;5.67;;;25.70;1.00;;;;;;6184879;28;20325;-54
2022/05/18 14:43:03;;;;;;;5.33;5.03;;;25.70;1.00;;;;;;6189062;28;20648;-54
2022/05/18 14:46:16;;;;;;;6.07;5.50;;;25.70;1.00;;;;;;6176443;28;20236;-54
2022/05/18 14:49:22;;;;;;;5.87;5.47;;;25.80;1.00;;;;;;6185128;28;20239;-55
2022/05/18 14:52:30;;;;;;;8.33;6.10;;;25.90;1.00;;;;;;6183174;28;20239;-54
2022/05/18 14:55:47;;;;;;;5.97;5.57;;;26.00;1.00;;;;;;6175971;28;20323;-50
2022/05/18 14:58:56;;;;;;;5.97;5.47;;;26.00;1.00;;;;;;6187411;28;20318;-56
2022/05/18 15:02:03;;;;;;;5.63;5.43;;;25.80;1.00;;;;;;6172040;28;20259;-55
2022/05/18 15:05:11;;;;;;;5.47;5.17;;;25.90;1.00;;;;;;6193471;28;20258;-55
2022/05/18 15:08:17;;;;;;;6.00;5.33;;;25.90;1.00;;;;;;6186169;28;20370;-56
2022/05/18 15:11:36;;;;;;;6.07;5.43;;;26.00;1.00;;;;;;6188493;28;20271;-56
2022/05/18 15:14:44;;;;;;;6.63;5.73;;;26.10;1.00;;;;;;6181676;28;20263;-55
2022/05/18 15:17:53;;;;;;;7.07;6.47;;;26.30;1.00;;;;;;6179956;28;20245;-56
2022/05/18 15:21:08;;;;;;;5.93;5.43;;;26.30;1.00;;;;;;6188293;28;20311;-55
2022/05/18 15:24:18;;;;;;;7.63;6.93;;;26.20;1.00;;;;;;6179227;28;20467;-55
2022/05/18 15:27:28;;;;;;;5.93;5.43;;;26.20;1.00;;;;;;6181715;28;20331;-55
2022/05/18 15:30:31;;;;;;;6.33;5.83;;;26.00;1.00;;;;;;6181470;28;20509;-54
2022/05/18 15:33:38;;;;;;;6.57;6.20;;;26.00;1.00;;;;;;6173846;28;20244;-54
2022/05/18 15:36:47;;;;;;;7.07;6.37;;;25.70;1.00;;;;;;6187878;28;20744;-55
2022/05/18 15:39:50;;;;;;;6.67;6.20;;;25.70;1.00;;;;;;6191755;28;20334;-55
2022/05/18 15:42:52;;;;;;;6.13;5.83;;;25.80;1.00;;;;;;6175831;28;20274;-55
2022/05/18 15:45:59;;;;;;;7.00;6.33;;;25.70;1.00;;;;;;6187004;28;20239;-54
2022/05/18 15:49:02;;;;;;;6.07;5.50;;;25.70;1.00;;;;;;6179930;28;20498;-54
2022/05/18 15:52:17;;;;;;;6.20;5.70;;;25.70;1.00;;;;;;6187744;28;20322;-54
2022/05/18 15:55:24;;;;;;;7.03;6.43;;;25.70;1.00;;;;;;6188912;28;20713;-55
2022/05/18 15:58:27;;;;;;;6.50;5.90;;;25.70;1.00;;;;;;6173420;28;20906;-54
2022/05/18 16:01:30;;;;;;;6.73;6.33;;;25.80;1.00;;;;;;6172078;28;20236;-55
2022/05/18 16:04:33;;;;;;;6.30;5.93;;;25.70;1.00;;;;;;6190838;28;20432;-55
2022/05/18 16:07:45;;;;;;;6.60;5.90;;;25.70;1.00;;;;;;6182431;28;20334;-54
2022/05/18 16:10:49;;;;;;;6.53;6.13;;;25.60;1.00;;;;;;6187258;28;20236;-56
2022/05/18 16:13:53;;;;;;;6.80;6.20;;;25.50;1.00;;;;;;6187908;28;20561;-54
2022/05/18 16:16:59;;;;;;;6.47;5.60;;;25.40;1.00;;;;;;6185350;28;20897;-54
2022/05/18 16:20:06;;;;;;;6.70;6.20;;;25.40;1.00;;;;;;6186419;28;20240;-54
2022/05/18 16:23:15;;;;;;;6.03;5.67;;;25.20;1.00;;;;;;6186696;28;20317;-54
2022/05/18 16:26:18;;;;;;;6.10;5.80;;;25.10;1.00;;;;;;6174477;28;20737;-56
2022/05/18 16:29:26;;;;;;;6.53;6.03;;;25.00;1.00;;;;;;6194586;28;20380;-55
2022/05/18 16:32:28;;;;;;;6.00;5.70;;;24.90;1.00;;;;;;6172225;28;20674;-55
2022/05/18 16:35:32;;;;;;;6.90;6.20;;;24.80;1.00;;;;;;6193637;28;20254;-55
2022/05/18 16:38:36;;;;;;;6.23;5.77;;;24.80;1.00;;;;;;6184133;28;20624;-56
2022/05/18 16:41:40;;;;;;;6.83;6.17;;;24.80;1.00;;;;;;6182709;28;20856;-55
2022/05/18 16:44:50;;;;;;;7.43;6.70;;;24.60;1.00;;;;;;6186814;28;20262;-54
2022/05/18 16:47:53;;;;;;;7.83;7.13;;;24.60;1.00;;;;;;6182868;28;20590;-54